Time;durP1;ratioP1;P1;durP2;ratioP2;P2;SDS_P1;SDS_P2;PMS_P1;PMS_P2;Temp;Humidity;BMP_temperature;BMP_pressure;BME280_temperature;BME280_humidity;BME280_pressure;Samples;Min_cycle;Max_cycle;Signal;HPM_P1;HPM_P2
2021/05/24 00:00:08;;;;;;;7.18;3.95;;;;;;;7.96;79.52;101864.06;5046942;28;20036;-77
2021/05/24 00:02:34;;;;;;;7.18;3.90;;;;;;;7.88;82.06;101865.06;5041747;28;20037;-77
2021/05/24 00:05:00;;;;;;;8.90;3.95;;;;;;;7.88;81.53;101872.25;5055906;28;20056;-77
2021/05/24 00:07:25;;;;;;;5.95;4.32;;;;;;;7.85;82.13;101872.66;5051890;28;20056;-77
2021/05/24 00:09:51;;;;;;;5.15;3.42;;;;;;;7.86;81.41;101872.44;5040997;28;20020;-77
2021/05/24 00:12:24;;;;;;;5.20;3.25;;;;;;;7.84;80.44;101881.69;5042143;28;20040;-77
2021/05/24 00:14:50;;;;;;;5.20;3.40;;;;;;;7.87;80.18;101878.59;5043286;28;20150;-77
2021/05/24 00:17:15;;;;;;;5.50;4.05;;;;;;;7.92;79.71;101876.19;5040759;28;20104;-77
2021/05/24 00:19:41;;;;;;;5.68;3.50;;;;;;;7.93;79.49;101872.47;5051723;28;20036;-77
2021/05/24 00:22:07;;;;;;;7.85;3.60;;;;;;;7.94;79.33;101868.78;5050275;28;20120;-77
2021/05/24 00:24:32;;;;;;;6.60;4.60;;;;;;;7.94;79.83;101868.78;5049385;28;20037;-77
2021/05/24 00:26:58;;;;;;;4.80;3.22;;;;;;;7.91;79.64;101863.88;5043451;28;20030;-77
2021/05/24 00:29:25;;;;;;;6.63;3.70;;;;;;;7.88;79.50;101869.56;5046160;28;20033;-77
2021/05/24 00:31:50;;;;;;;7.57;3.75;;;;;;;7.87;79.28;101865.28;5049850;28;20017;-77
2021/05/24 00:34:16;;;;;;;6.97;3.72;;;;;;;7.81;79.27;101856.25;5053469;28;20036;-77
2021/05/24 00:36:41;;;;;;;4.25;3.50;;;;;;;7.86;78.30;101855.63;5047298;28;20053;-77
2021/05/24 00:39:08;;;;;;;9.75;4.20;;;;;;;7.82;78.84;101843.72;5046255;28;20025;-77
2021/05/24 00:41:40;;;;;;;6.18;3.97;;;;;;;7.79;79.07;101846.78;5048465;28;20041;-77
2021/05/24 00:44:07;;;;;;;6.90;3.75;;;;;;;7.73;79.54;101852.94;5038719;28;20118;-77
2021/05/24 00:46:34;;;;;;;7.88;4.15;;;;;;;7.68;79.71;101850.03;5044954;28;20122;-77
2021/05/24 00:49:00;;;;;;;5.25;3.90;;;;;;;7.61;79.66;101850.03;5043846;28;20487;-77
2021/05/24 00:51:26;;;;;;;5.32;3.92;;;;;;;7.60;79.34;101843.06;5047650;28;20103;-77
2021/05/24 00:53:52;;;;;;;6.20;4.07;;;;;;;7.60;78.73;101845.72;5047079;28;20025;-77
2021/05/24 00:56:18;;;;;;;8.82;4.47;;;;;;;7.57;79.45;101851.47;5045779;28;20043;-78
2021/05/24 00:58:45;;;;;;;8.50;4.80;;;;;;;7.59;79.02;101844.09;5056311;28;20032;-77
2021/05/24 01:01:11;;;;;;;8.75;4.03;;;;;;;7.54;79.54;101847.38;5051992;28;20041;-78
2021/05/24 01:03:36;;;;;;;7.15;4.68;;;;;;;7.41;81.33;101849.16;5052373;28;20053;-77
2021/05/24 01:06:02;;;;;;;7.28;4.47;;;;;;;7.46;80.27;101844.03;5048481;28;20379;-77
2021/05/24 01:08:28;;;;;;;8.20;4.93;;;;;;;7.53;79.51;101832.34;5045530;28;20091;-78
2021/05/24 01:10:54;;;;;;;6.00;4.03;;;;;;;7.57;79.22;101830.97;5050526;28;20036;-77
2021/05/24 01:13:20;;;;;;;11.93;5.90;;;;;;;7.43;80.80;101839.13;5047794;28;20408;-78
2021/05/24 01:15:46;;;;;;;8.02;4.97;;;;;;;7.37;82.67;101839.94;5044521;28;20030;-77
2021/05/24 01:18:11;;;;;;;8.18;5.20;;;;;;;7.44;81.20;101836.25;5049102;28;20103;-77
2021/05/24 01:20:38;;;;;;;6.72;4.22;;;;;;;7.44;80.59;101830.09;5044635;28;20037;-77
2021/05/24 01:25:37;;;;;;;7.82;4.88;;;;;;;7.32;80.73;101831.69;5049348;28;20029;-78
2021/05/24 01:28:04;;;;;;;9.32;4.38;;;;;;;7.25;80.46;101832.50;5046282;28;20662;-77
2021/05/24 01:30:31;;;;;;;6.32;4.45;;;;;;;7.14;81.24;101827.72;5041247;28;20024;-78
2021/05/24 01:32:57;;;;;;;6.53;4.22;;;;;;;7.12;80.97;101827.09;5037201;28;20610;-78
2021/05/24 01:35:22;;;;;;;6.38;4.03;;;;;;;7.03;81.03;101825.66;5040961;28;20114;-77
2021/05/24 01:37:48;;;;;;;7.53;4.57;;;;;;;7.00;81.19;101825.19;5046728;28;20112;-77
2021/05/24 01:40:15;;;;;;;9.63;4.75;;;;;;;6.94;80.96;101824.16;5044635;28;20513;-77
2021/05/24 01:42:41;;;;;;;9.23;4.40;;;;;;;6.91;80.89;101821.88;5042108;28;20021;-77
2021/05/24 01:45:07;;;;;;;8.02;4.47;;;;;;;6.85;80.93;101820.03;5049526;28;20025;-77
2021/05/24 01:47:33;;;;;;;7.93;4.72;;;;;;;6.77;82.29;101817.50;5052262;28;20020;-78
2021/05/24 01:49:58;;;;;;;10.80;5.43;;;;;;;6.76;82.29;101821.19;5049669;28;20375;-77
2021/05/24 01:52:24;;;;;;;7.82;4.93;;;;;;;6.70;82.41;101814.81;5041804;28;20545;-78
2021/05/24 01:54:50;;;;;;;9.57;5.00;;;;;;;6.66;82.81;101813.56;5048974;28;20033;-77
2021/05/24 01:57:15;;;;;;;9.98;5.07;;;;;;;6.67;82.30;101815.22;5046625;28;20572;-77
2021/05/24 01:59:42;;;;;;;9.23;4.78;;;;;;;6.69;81.83;101815.00;5049334;28;20059;-77
2021/05/24 02:02:07;;;;;;;9.68;4.38;;;;;;;6.64;82.25;101823.56;5040117;28;20063;-77
2021/05/24 02:04:37;;;;;;;9.32;4.82;;;;;;;6.59;82.64;101820.69;5036529;28;20053;-78
2021/05/24 02:07:03;;;;;;;8.38;5.13;;;;;;;6.48;84.45;101819.41;5050372;28;20063;-77
2021/05/24 02:09:29;;;;;;;9.27;4.72;;;;;;;6.46;85.35;101817.91;5045813;28;20435;-77
2021/05/24 02:11:54;;;;;;;10.85;5.53;;;;;;;6.39;86.73;101819.72;5048606;28;20039;-77
2021/05/24 02:14:21;;;;;;;10.02;5.97;;;;;;;6.36;87.07;101821.75;5043273;28;20021;-77
2021/05/24 02:16:51;;;;;;;9.13;4.45;;;;;;;6.37;85.98;101819.91;5044583;28;20475;-77
2021/05/24 02:19:19;;;;;;;9.15;4.93;;;;;;;6.38;84.46;101823.41;5039636;28;20033;-77
2021/05/24 02:21:45;;;;;;;7.55;4.95;;;;;;;6.33;84.33;101826.66;5047329;28;20025;-78
2021/05/24 02:24:12;;;;;;;8.52;4.50;;;;;;;6.30;83.86;101825.22;5046308;28;20025;-77
2021/05/24 02:26:40;;;;;;;7.15;4.63;;;;;;;6.25;83.91;101827.59;5051140;28;20040;-78
2021/05/24 02:29:07;;;;;;;6.97;4.40;;;;;;;6.22;83.28;101828.00;5061396;28;20459;-77
2021/05/24 02:31:34;;;;;;;9.18;5.53;;;;;;;6.18;83.12;101824.09;5048450;28;20030;-77
2021/05/24 02:33:59;;;;;;;6.72;4.10;;;;;;;6.12;83.09;101821.38;5044407;28;20033;-78
2021/05/24 02:36:26;;;;;;;4.72;3.25;;;;;;;6.12;82.78;101822.19;5041840;28;20276;-78
2021/05/24 02:38:53;;;;;;;5.63;3.72;;;;;;;6.06;83.18;101820.28;5036733;28;20145;-78
2021/05/24 02:41:18;;;;;;;8.30;4.82;;;;;;;6.05;83.38;101818.66;5049628;28;20039;-78
2021/05/24 02:43:44;;;;;;;9.88;4.50;;;;;;;6.03;83.12;101818.84;5043974;28;20020;-77
2021/05/24 02:46:11;;;;;;;7.97;4.22;;;;;;;6.06;82.64;101812.31;5046564;28;20032;-78
2021/05/24 02:48:37;;;;;;;7.90;4.45;;;;;;;6.00;83.56;101803.25;5043233;28;20033;-77
2021/05/24 02:51:03;;;;;;;8.32;4.40;;;;;;;6.01;83.91;101812.06;5045183;28;20025;-77
2021/05/24 02:53:29;;;;;;;9.57;5.97;;;;;;;6.05;85.02;101802.69;5044322;28;20025;-77
2021/05/24 02:55:54;;;;;;;7.45;5.13;;;;;;;6.16;83.77;101804.81;5045919;28;20025;-77
2021/05/24 02:58:20;;;;;;;6.38;4.13;;;;;;;6.23;85.66;101811.00;5042098;28;20430;-77
2021/05/24 03:00:45;;;;;;;8.48;4.95;;;;;;;6.30;87.26;101808.41;5044719;28;20030;-77
2021/05/24 03:03:12;;;;;;;6.63;4.72;;;;;;;6.35;86.86;101800.66;5047170;28;20135;-77
2021/05/24 03:05:38;;;;;;;8.05;5.10;;;;;;;6.43;88.67;101805.00;5043576;28;20499;-77
2021/05/24 03:08:04;;;;;;;9.77;5.63;;;;;;;6.50;87.15;101804.03;5045839;28;20043;-77
2021/05/24 03:10:29;;;;;;;14.50;6.13;;;;;;;6.56;86.43;101797.94;5045104;28;20479;-77
2021/05/24 03:12:55;;;;;;;11.07;5.45;;;;;;;6.54;86.08;101802.63;5043115;28;20059;-77
2021/05/24 03:15:21;;;;;;;11.00;4.95;;;;;;;6.51;86.66;101803.03;5042357;28;20032;-77
2021/05/24 03:17:47;;;;;;;11.95;5.78;;;;;;;6.52;85.82;101793.19;5049291;28;20375;-77
2021/05/24 03:20:14;;;;;;;8.75;4.60;;;;;;;6.54;85.43;101804.47;5036334;28;20033;-77
2021/05/24 03:22:41;;;;;;;10.77;5.22;;;;;;;6.57;85.39;101801.41;5047171;28;20082;-77
2021/05/24 03:25:08;;;;;;;8.32;4.22;;;;;;;6.62;85.87;101802.47;5041928;28;20104;-77
2021/05/24 03:27:34;;;;;;;7.43;4.88;;;;;;;6.75;83.78;101798.25;5046832;28;20639;-77
2021/05/24 03:30:00;;;;;;;10.20;5.18;;;;;;;6.78;84.81;101796.00;5048210;28;20039;-77
2021/05/24 03:32:26;;;;;;;7.25;4.93;;;;;;;6.84;84.67;101795.22;5047327;28;20037;-77
2021/05/24 03:34:51;;;;;;;6.20;4.22;;;;;;;6.94;84.00;101795.66;5045274;28;20025;-78
2021/05/24 03:37:17;;;;;;;6.47;4.22;;;;;;;7.04;83.05;101799.81;5037018;28;20018;-77
2021/05/24 03:39:43;;;;;;;9.73;4.82;;;;;;;7.09;83.13;101798.19;5043108;28;20531;-77
2021/05/24 03:42:09;;;;;;;7.10;4.13;;;;;;;7.22;82.30;101800.09;5042148;28;20039;-77
2021/05/24 03:44:36;;;;;;;6.88;4.30;;;;;;;7.34;82.48;101797.66;5040962;28;20112;-78
2021/05/24 03:47:02;;;;;;;8.32;4.88;;;;;;;7.54;81.50;101801.19;5034557;28;20048;-77
2021/05/24 03:49:28;;;;;;;7.57;5.13;;;;;;;7.66;82.27;101806.75;5046648;28;20029;-78
2021/05/24 03:51:54;;;;;;;6.25;4.05;;;;;;;7.80;81.07;101800.41;5045161;28;20950;-78
2021/05/24 03:54:19;;;;;;;6.10;3.45;;;;;;;7.84;82.20;101798.97;5042704;28;20025;-78
2021/05/24 03:56:45;;;;;;;4.95;3.85;;;;;;;7.96;80.77;101807.19;5045154;28;20533;-78
2021/05/24 03:59:10;;;;;;;9.40;4.28;;;;;;;8.06;79.97;101808.41;5047851;28;20032;-78
2021/05/24 04:01:38;;;;;;;6.55;3.92;;;;;;;8.07;81.37;101803.91;5050987;28;20035;-78
2021/05/24 04:04:05;;;;;;;7.45;3.92;;;;;;;8.03;83.00;101811.50;5046072;28;20482;-77
2021/05/24 04:06:31;;;;;;;6.57;3.83;;;;;;;8.10;82.49;101811.53;5042016;28;20128;-78
2021/05/24 04:08:56;;;;;;;5.05;3.60;;;;;;;8.11;83.13;101818.50;5043607;28;20133;-78
2021/05/24 04:11:22;;;;;;;5.03;3.38;;;;;;;8.26;81.60;101819.13;5041260;28;20029;-78
2021/05/24 04:13:52;;;;;;;5.93;4.05;;;;;;;8.28;81.64;101816.25;5041912;28;20478;-77
2021/05/24 04:16:18;;;;;;;6.32;3.72;;;;;;;8.30;81.49;101820.34;5045392;28;21926;-78
2021/05/24 04:18:47;;;;;;;6.63;3.50;;;;;;;8.37;81.19;101821.19;5054399;28;20062;-77
2021/05/24 04:21:14;;;;;;;5.18;3.97;;;;;;;8.44;80.31;101815.84;5054467;28;20487;-77
2021/05/24 04:23:41;;;;;;;3.92;3.10;;;;;;;8.42;81.19;101823.22;5047316;28;20078;-77
2021/05/24 04:26:07;;;;;;;5.85;3.22;;;;;;;8.47;80.69;101818.91;5045251;28;20028;-77
2021/05/24 04:28:32;;;;;;;7.18;3.80;;;;;;;8.55;80.16;101822.38;5049515;28;20021;-78
2021/05/24 04:30:58;;;;;;;5.15;3.78;;;;;;;8.60;80.52;101826.06;5048628;28;20025;-77
2021/05/24 04:33:24;;;;;;;5.65;3.63;;;;;;;8.78;79.93;101822.72;5047570;28;20036;-78
2021/05/24 04:35:49;;;;;;;4.80;3.38;;;;;;;8.98;78.65;101820.03;5043301;28;20048;-77
2021/05/24 04:38:15;;;;;;;5.75;3.75;;;;;;;9.13;79.60;101823.22;5040861;28;20025;-77
2021/05/24 04:40:40;;;;;;;4.88;2.95;;;;;;;9.33;77.84;101815.94;5050307;28;20467;-78
2021/05/24 04:43:06;;;;;;;4.68;3.30;;;;;;;9.43;78.16;101817.34;5049683;28;20027;-77
2021/05/24 04:45:32;;;;;;;5.97;3.33;;;;;;;9.66;76.92;101810.41;5043572;28;20049;-78
2021/05/24 04:47:57;;;;;;;4.90;3.58;;;;;;;9.83;76.42;101810.69;5051922;28;20021;-78
2021/05/24 04:50:23;;;;;;;4.82;3.28;;;;;;;9.89;76.71;101807.16;5050394;28;20029;-77
2021/05/24 04:52:48;;;;;;;4.88;3.17;;;;;;;9.98;76.66;101805.84;5041426;28;20031;-78
2021/05/24 04:55:14;;;;;;;4.00;2.80;;;;;;;10.08;76.33;101812.59;5036859;28;20024;-78
2021/05/24 04:57:40;;;;;;;3.45;2.70;;;;;;;10.22;75.69;101814.13;5043282;28;20047;-77
2021/05/24 05:00:09;;;;;;;4.05;2.80;;;;;;;10.35;75.63;101813.19;5049715;28;20029;-78
2021/05/24 05:02:37;;;;;;;3.47;2.70;;;;;;;10.39;75.03;101817.88;5046803;28;20090;-77
2021/05/24 05:05:05;;;;;;;4.07;2.42;;;;;;;10.55;74.12;101828.03;5047460;28;20484;-77
2021/05/24 05:07:31;;;;;;;4.90;2.67;;;;;;;10.62;74.34;101816.44;5045109;28;20032;-78
2021/05/24 05:09:58;;;;;;;3.22;2.58;;;;;;;10.80;73.53;101816.47;5055438;28;20033;-78
2021/05/24 05:12:24;;;;;;;5.32;2.70;;;;;;;10.99;72.93;101815.41;5053220;28;20032;-77
2021/05/24 05:14:50;;;;;;;3.15;2.10;;;;;;;11.17;72.21;101811.88;5048227;28;20033;-78
2021/05/24 05:17:15;;;;;;;2.63;2.13;;;;;;;11.30;71.88;101809.00;5040760;28;20382;-78
2021/05/24 05:19:41;;;;;;;3.60;2.40;;;;;;;11.39;71.56;101806.84;5045397;28;20036;-78
2021/05/24 05:22:06;;;;;;;3.40;2.28;;;;;;;11.54;71.13;101812.63;5047914;28;20029;-78
2021/05/24 05:24:32;;;;;;;2.00;1.75;;;;;;;11.62;70.79;101798.03;5041837;28;20049;-78
2021/05/24 05:26:57;;;;;;;2.55;2.25;;;;;;;11.62;70.40;101804.22;5037098;28;20025;-78
2021/05/24 05:29:23;;;;;;;2.50;2.17;;;;;;;11.73;70.76;101808.00;5046032;28;20091;-78
2021/05/24 05:31:48;;;;;;;2.85;1.75;;;;;;;11.96;69.88;101809.94;5047971;28;20028;-78
2021/05/24 05:34:14;;;;;;;2.85;1.95;;;;;;;12.04;69.73;101813.13;5050266;28;20036;-78
2021/05/24 05:36:39;;;;;;;2.80;2.00;;;;;;;12.19;69.05;101809.16;5061857;28;20017;-78
2021/05/24 05:39:05;;;;;;;3.92;2.03;;;;;;;12.33;68.78;101811.38;5044667;28;20025;-78
2021/05/24 05:41:31;;;;;;;2.83;2.10;;;;;;;12.36;68.27;101816.28;5043949;28;20720;-78
2021/05/24 05:43:57;;;;;;;3.38;2.42;;;;;;;12.50;68.24;101816.06;5046182;28;20021;-78
2021/05/24 05:46:22;;;;;;;2.20;2.00;;;;;;;12.61;67.71;101821.44;5045335;28;20403;-78
2021/05/24 05:48:47;;;;;;;2.95;2.25;;;;;;;12.51;67.41;101829.25;5041970;28;20442;-77
2021/05/24 05:51:13;;;;;;;3.28;2.17;;;;;;;12.67;67.39;101833.91;5037231;28;21970;-78
2021/05/24 05:53:38;;;;;;;2.40;2.08;;;;;;;12.91;66.83;101833.88;5042211;28;20033;-78
2021/05/24 05:56:04;;;;;;;2.88;2.17;;;;;;;12.91;66.95;101832.00;5047336;22;783249;-46
2021/05/24 05:58:30;;;;;;;3.22;2.13;;;;;;;13.05;66.38;101835.25;5069646;28;20639;-45
2021/05/24 06:00:57;;;;;;;3.30;2.30;;;;;;;13.20;66.29;101838.28;5069805;28;20032;-44
2021/05/24 06:03:22;;;;;;;3.22;2.25;;;;;;;13.48;65.40;101828.59;5070587;28;20027;-45
2021/05/24 06:05:48;;;;;;;2.70;2.30;;;;;;;13.51;64.66;101833.50;5067784;28;20020;-45
2021/05/24 06:08:13;;;;;;;2.85;2.28;;;;;;;13.55;64.50;101827.38;5059384;22;20034;-71
2021/05/24 06:10:39;;;;;;;6.50;2.20;;;;;;;13.70;64.65;101829.53;5004180;28;20030;-71
2021/05/24 06:13:05;;;;;;;2.92;2.20;;;;;;;13.88;63.84;101833.91;4997906;28;20029;-71
2021/05/24 06:15:30;;;;;;;2.58;2.10;;;;;;;13.97;64.12;101837.81;4989391;28;20029;-71
2021/05/24 06:17:56;;;;;;;3.80;2.03;;;;;;;14.07;63.24;101840.69;5008863;28;20084;-71
2021/05/24 06:20:21;;;;;;;3.60;2.08;;;;;;;14.17;63.21;101831.94;4995707;28;20030;-71
2021/05/24 06:22:47;;;;;;;5.18;2.40;;;;;;;14.29;62.90;101832.66;5010627;28;22152;-71
2021/05/24 06:25:13;;;;;;;2.88;2.10;;;;;;;14.51;62.43;101824.66;5005637;28;20120;-72
2021/05/24 06:27:39;;;;;;;2.22;1.80;;;;;;;14.58;61.79;101830.72;5006606;28;20581;-71
2021/05/24 06:30:07;;;;;;;3.90;2.30;;;;;;;14.69;61.60;101837.03;4983514;28;20037;-72
2021/05/24 06:32:33;;;;;;;3.00;2.15;;;;;;;14.69;61.42;101840.56;4984085;28;20115;-72
2021/05/24 06:34:59;;;;;;;3.08;2.20;;;;;;;14.70;61.44;101834.09;5005605;28;20495;-71
2021/05/24 06:37:25;;;;;;;2.20;1.88;;;;;;;14.64;61.74;101837.00;4982163;28;20037;-71
2021/05/24 06:39:50;;;;;;;4.88;2.20;;;;;;;14.92;61.34;101836.03;5004315;28;20032;-72
2021/05/24 06:42:17;;;;;;;3.00;1.95;;;;;;;15.20;60.24;101838.53;4980947;28;20037;-72
2021/05/24 06:44:42;;;;;;;2.28;2.03;;;;;;;15.36;59.91;101823.31;5011243;28;20049;-72
2021/05/24 06:47:08;;;;;;;1.92;1.67;;;;;;;15.55;59.81;101834.56;5009333;28;20109;-72
2021/05/24 06:49:35;;;;;;;2.33;2.10;;;;;;;15.69;59.04;101833.13;5010615;28;20060;-71
2021/05/24 06:52:02;;;;;;;2.10;1.85;;;;;;;15.70;59.20;101824.78;5006825;28;20025;-72
2021/05/24 06:54:27;;;;;;;4.32;2.22;;;;;;;15.87;58.76;101821.94;5006983;28;20662;-72
2021/05/24 06:56:53;;;;;;;2.55;1.98;;;;;;;15.95;58.37;101824.16;5011948;28;20020;-72
2021/05/24 06:59:18;;;;;;;2.67;1.80;;;;;;;16.07;58.21;101817.78;4992508;28;20064;-72
2021/05/24 07:01:44;;;;;;;1.90;1.75;;;;;;;16.23;57.79;101820.34;5003907;28;20076;-72
2021/05/24 07:04:09;;;;;;;3.70;1.98;;;;;;;16.02;55.68;101821.28;5009520;28;20064;-72
2021/05/24 07:06:35;;;;;;;3.45;1.70;;;;;;;15.92;58.26;101830.09;5010034;28;20419;-72
2021/05/24 07:09:00;;;;;;;2.28;2.00;;;;;;;16.33;57.20;101822.28;4988074;28;20065;-72
2021/05/24 07:11:26;;;;;;;4.82;2.10;;;;;;;16.46;56.75;101813.72;5005459;28;20574;-72
2021/05/24 07:13:51;;;;;;;2.45;1.33;;;;;;;16.60;56.61;101822.19;5006403;28;20049;-74
2021/05/24 07:16:17;;;;;;;1.70;1.50;;;;;;;16.71;55.98;101815.81;5006669;28;20391;-74
2021/05/24 07:18:42;;;;;;;2.30;1.73;;;;;;;16.97;55.88;101816.72;5004883;28;20487;-72
2021/05/24 07:21:08;;;;;;;3.22;1.58;;;;;;;17.16;55.26;101807.03;4988935;28;20069;-72
2021/05/24 07:23:34;;;;;;;1.70;1.58;;;;;;;17.11;55.04;101814.34;4978493;28;20066;-72
2021/05/24 07:26:00;;;;;;;3.17;1.90;;;;;;;17.35;54.60;101809.25;4981933;28;20089;-71
2021/05/24 07:28:25;;;;;;;2.28;1.70;;;;;;;17.38;53.83;101800.59;5009143;28;20033;-72
2021/05/24 07:30:51;;;;;;;4.10;1.80;;;;;;;17.64;53.65;101805.00;5004156;28;20029;-73
2021/05/24 07:33:16;;;;;;;3.97;1.73;;;;;;;17.68;53.67;101806.09;5008774;28;20531;-73
2021/05/24 07:35:42;;;;;;;2.75;1.60;;;;;;;17.90;52.75;101807.72;5001350;28;20034;-73
2021/05/24 07:38:09;;;;;;;3.00;1.38;;;;;;;17.98;52.89;101802.59;5004323;28;20723;-72
2021/05/24 07:40:35;;;;;;;3.85;1.25;;;;;;;17.73;51.31;101806.09;4992191;28;20064;-77
2021/05/24 07:43:01;;;;;;;1.98;1.45;;;;;;;17.73;52.06;101799.88;5008553;28;20036;-75
2021/05/24 07:45:26;;;;;;;2.45;1.30;;;;;;;17.89;51.88;101797.97;4998218;28;20030;-74
2021/05/24 07:47:52;;;;;;;2.40;1.20;;;;;;;17.98;51.40;101790.94;5004540;28;20030;-75
2021/05/24 07:50:17;;;;;;;1.52;1.10;;;;;;;18.23;51.47;101790.91;4989563;28;20050;-75
2021/05/24 07:52:43;;;;;;;1.77;1.35;;;;;;;18.39;49.78;101791.69;4995827;28;20026;-75
2021/05/24 07:55:09;;;;;;;1.98;1.00;;;;;;;18.11;48.40;101793.06;4990500;28;20089;-75
2021/05/24 07:57:36;;;;;;;1.48;1.00;;;;;;;17.45;47.68;101796.56;4992966;28;20080;-76
2021/05/24 08:00:04;;;;;;;2.45;1.20;;;;;;;17.95;47.37;101781.41;4992760;28;20057;-75
2021/05/24 08:02:30;;;;;;;1.15;0.95;;;;;;;17.26;48.04;101798.16;5011043;28;20088;-77
2021/05/24 08:04:55;;;;;;;2.15;0.90;;;;;;;17.64;47.51;101788.72;5012112;28;20049;-75
2021/05/24 08:07:21;;;;;;;2.60;1.08;;;;;;;18.03;47.47;101775.47;5009704;28;20613;-76
2021/05/24 08:09:48;;;;;;;3.42;1.08;;;;;;;18.40;46.97;101766.97;4995549;28;20033;-75
2021/05/24 08:12:13;;;;;;;2.20;0.90;;;;;;;18.64;46.34;101771.81;4992937;28;20440;-75
2021/05/24 08:14:38;;;;;;;1.58;0.98;;;;;;;18.68;46.58;101775.63;5013382;28;20053;-75
2021/05/24 08:17:04;;;;;;;1.05;0.95;;;;;;;18.50;45.50;101778.91;4995630;28;20036;-75
2021/05/24 08:19:30;;;;;;;1.88;0.82;;;;;;;18.68;45.04;101770.19;4990538;28;20036;-74
2021/05/24 08:21:55;;;;;;;1.27;0.90;;;;;;;18.47;45.34;101765.88;4992636;28;20053;-75
2021/05/24 08:24:21;;;;;;;1.58;1.15;;;;;;;18.38;45.94;101768.34;5012826;28;20064;-74
2021/05/24 08:26:47;;;;;;;1.33;0.90;;;;;;;18.65;45.20;101762.59;4990498;28;20038;-77
2021/05/24 08:29:13;;;;;;;2.05;0.90;;;;;;;18.52;45.97;101772.13;5010847;28;20030;-76
2021/05/24 08:31:40;;;;;;;17.95;9.93;;;;;;;18.77;44.78;101765.81;4993931;28;20462;-76
2021/05/24 08:34:06;;;;;;;5.75;3.00;;;;;;;18.92;44.27;101770.34;5012218;28;20027;-76
2021/05/24 08:36:33;;;;;;;11.25;6.00;;;;;;;19.16;43.76;101765.06;4992039;28;20037;-76
2021/05/24 08:38:59;;;;;;;1.05;0.90;;;;;;;18.14;43.36;101765.44;4991706;28;20225;-75
2021/05/24 08:41:25;;;;;;;12.48;7.30;;;;;;;18.58;44.90;101762.03;5006408;28;20130;-75
2021/05/24 08:43:50;;;;;;;5.28;3.38;;;;;;;18.37;44.78;101758.59;5006077;28;20026;-76
2021/05/24 08:46:16;;;;;;;5.43;3.55;;;;;;;19.14;44.00;101759.09;4993288;28;20101;-75
2021/05/24 08:48:41;;;;;;;4.07;3.35;;;;;;;19.38;42.78;101754.56;5010472;28;20029;-74
2021/05/24 08:51:09;;;;;;;1.58;0.80;;;;;;;19.64;41.28;101754.44;5012889;28;20036;-75
2021/05/24 08:53:38;;;;;;;3.45;1.00;;;;;;;19.88;41.81;101749.88;4992415;28;20037;-77
2021/05/24 08:56:08;;;;;;;3.28;0.90;;;;;;;20.17;40.58;101741.69;5006544;28;20432;-76
2021/05/24 08:58:35;;;;;;;1.65;0.88;;;;;;;19.44;41.36;101749.94;4992345;28;20026;-75
2021/05/24 09:01:01;;;;;;;2.33;1.13;;;;;;;19.80;41.65;101731.47;4979984;28;20064;-77
2021/05/24 09:03:31;;;;;;;2.95;0.80;;;;;;;19.54;40.85;101745.25;5006913;28;20029;-76
2021/05/24 09:06:01;;;;;;;2.33;0.80;;;;;;;19.10;41.25;101722.72;5003325;28;20025;-76
2021/05/24 09:08:38;;;;;;;1.63;1.00;;;;;;;19.69;39.24;101727.19;4993239;28;20095;-75
2021/05/24 09:11:04;;;;;;;1.20;1.00;;;;;;;18.96;40.29;101733.41;4999503;28;20160;-76
2021/05/24 09:13:32;;;;;;;3.60;1.02;;;;;;;19.01;41.10;101730.63;4987605;28;20449;-75
2021/05/24 09:15:57;;;;;;;2.05;0.85;;;;;;;19.81;40.19;101714.03;5008577;28;20056;-76
2021/05/24 09:18:23;;;;;;;2.50;1.00;;;;;;;20.38;39.94;101717.78;5010538;28;20069;-74
2021/05/24 09:20:50;;;;;;;1.58;0.93;;;;;;;20.55;38.75;101717.34;5012737;28;20462;-76
2021/05/24 09:23:29;;;;;;;0.90;0.85;;;;;;;19.82;39.04;101707.50;5006072;28;20610;-75
2021/05/24 09:25:59;;;;;;;4.80;2.88;;;;;;;19.15;39.80;101725.41;4986532;28;20029;-74
2021/05/24 09:28:58;;;;;;;4.63;3.47;;;;;;;19.27;38.87;101712.28;5016651;28;20029;-73
2021/05/24 09:31:31;;;;;;;1.63;0.93;;;;;;;19.66;39.21;101712.28;4994118;28;20129;-73
2021/05/24 09:33:59;;;;;;;1.60;0.93;;;;;;;19.66;39.03;101700.59;4992497;28;20456;-74
2021/05/24 09:36:26;;;;;;;1.83;0.80;;;;;;;19.45;39.82;101708.88;4994928;28;20116;-74
2021/05/24 09:38:58;;;;;;;2.28;0.93;;;;;;;19.81;39.39;101701.25;5007926;28;20018;-74
2021/05/24 09:41:24;;;;;;;2.92;0.88;;;;;;;19.90;39.78;101702.25;5007189;28;20026;-74
2021/05/24 09:43:54;;;;;;;0.60;0.50;;;;;;;19.98;39.24;101703.53;5001418;28;20026;-76
2021/05/24 09:46:29;;;;;;;4.28;1.10;;;;;;;19.20;39.27;101707.16;4984556;28;20407;-74
2021/05/24 09:48:57;;;;;;;1.30;0.60;;;;;;;18.68;39.66;101700.44;4987683;28;20061;-74
2021/05/24 09:51:25;;;;;;;1.27;0.95;;;;;;;18.92;40.37;101686.16;5009571;28;20037;-75
2021/05/24 09:53:58;;;;;;;2.00;0.85;;;;;;;19.14;40.10;101686.56;5005472;28;20030;-75
2021/05/24 09:56:24;;;;;;;2.22;0.82;;;;;;;19.48;38.12;101672.97;4989285;28;20069;-74
2021/05/24 09:59:12;;;;;;;1.10;0.70;;;;;;;19.07;38.33;101677.13;5009502;28;20161;-74
2021/05/24 10:01:44;;;;;;;2.40;0.82;;;;;;;19.08;37.95;101681.47;5008568;28;20527;-74
2021/05/24 10:04:15;;;;;;;0.80;0.70;;;;;;;18.56;39.71;101686.34;4984351;28;20025;-74
2021/05/24 10:06:40;;;;;;;0.90;0.60;;;;;;;19.36;38.08;101679.88;4992449;28;20398;-75
2021/05/24 10:09:08;;;;;;;1.52;0.60;;;;;;;19.67;36.12;101669.56;4980885;28;20049;-75
2021/05/24 10:11:36;;;;;;;1.58;0.70;;;;;;;20.18;36.36;101667.13;5010603;28;20040;-75
2021/05/24 10:14:02;;;;;;;1.23;0.80;;;;;;;20.26;35.47;101668.38;4978810;28;20110;-75
2021/05/24 10:16:32;;;;;;;0.80;0.60;;;;;;;18.95;35.62;101672.03;4989755;28;20030;-74
2021/05/24 10:18:58;;;;;;;0.82;0.60;;;;;;;19.53;34.96;101663.97;4994643;28;20037;-75
2021/05/24 10:21:24;;;;;;;1.38;0.65;;;;;;;19.99;34.61;101669.00;5008881;28;20403;-74
2021/05/24 10:23:51;;;;;;;1.35;0.57;;;;;;;20.31;34.79;101661.00;5004567;28;20189;-75
2021/05/24 10:26:19;;;;;;;0.55;0.52;;;;;;;20.01;33.04;101653.19;5005899;28;20025;-74
2021/05/24 10:28:46;;;;;;;2.30;0.82;;;;;;;19.63;34.03;101661.19;4976917;28;20022;-74
2021/05/24 10:31:28;;;;;;;2.63;0.77;;;;;;;19.34;34.82;101642.13;5008859;28;20379;-75
2021/05/24 10:34:07;;;;;;;0.52;0.50;;;;;;;20.07;34.23;101644.66;4992915;28;20129;-74
2021/05/24 10:36:32;;;;;;;0.85;0.50;;;;;;;19.47;34.14;101640.66;4990688;28;20026;-74
2021/05/24 10:39:13;;;;;;;1.05;0.70;;;;;;;19.41;33.94;101628.22;5006846;28;20700;-76
2021/05/24 10:41:57;;;;;;;2.30;1.00;;;;;;;19.70;34.38;101628.22;4997258;28;20505;-75
2021/05/24 10:44:40;;;;;;;2.28;0.98;;;;;;;19.68;35.54;101630.41;4993981;28;20089;-75
2021/05/24 10:47:26;;;;;;;1.13;0.77;;;;;;;20.80;34.38;101611.59;4987413;28;20034;-75
2021/05/24 10:50:07;;;;;;;1.85;0.88;;;;;;;20.88;32.03;101607.41;5006972;28;20025;-76
2021/05/24 10:52:35;;;;;;;1.15;0.52;;;;;;;21.17;34.22;101599.00;5005485;28;20109;-76
2021/05/24 10:55:27;;;;;;;1.38;0.60;;;;;;;21.79;34.09;101607.75;4984772;28;20033;-77
2021/05/24 10:58:01;;;;;;;2.65;1.08;;;;;;;22.03;32.99;101602.88;4989094;28;20169;-75
2021/05/24 11:00:27;;;;;;;;;;;;;;;20.72;32.51;101595.94;4985024;28;20049;-75
2021/05/24 11:02:57;;;;;;;1.23;0.70;;;;;;;20.65;33.47;101584.63;5002544;28;19920;-75
2021/05/24 11:05:29;;;;;;;3.03;0.65;;;;;;;20.54;34.31;101595.94;4989008;28;20033;-75
2021/05/24 11:08:07;;;;;;;3.17;0.90;;;;;;;21.75;34.88;101579.47;4985145;28;20030;-76
2021/05/24 11:10:38;;;;;;;0.98;0.52;;;;;;;22.44;33.63;101585.69;4999724;28;20029;-76
2021/05/24 11:13:08;;;;;;;2.17;0.70;;;;;;;22.55;32.36;101575.31;4994120;28;20072;-75
2021/05/24 11:15:36;;;;;;;1.60;0.80;;;;;;;21.82;33.04;101557.22;4995438;28;20087;-77
2021/05/24 11:18:05;;;;;;;0.80;0.60;;;;;;;22.80;32.24;101560.22;4996034;28;20023;-76
2021/05/24 11:20:50;;;;;;;1.00;0.57;;;;;;;22.28;30.44;101565.28;4985336;28;20270;-75
2021/05/24 11:29:07;;;;;;;1.75;0.90;;;;;;;21.79;31.45;101561.38;5003457;28;20054;-75
2021/05/24 11:31:36;;;;;;;1.30;0.70;;;;;;;22.37;31.33;101543.50;5002034;28;20088;-76
2021/05/24 11:34:07;;;;;;;3.03;0.80;;;;;;;22.52;31.03;101545.91;4988614;28;20165;-76
2021/05/24 11:36:33;;;;;;;1.45;0.70;;;;;;;21.54;31.63;101537.31;5003757;28;20501;-76